createdAt,value
2018-01-30T00:00:26.591Z,1020.72
2018-01-30T00:01:01.689Z,1020.71
2018-01-30T00:01:37.114Z,1020.73
2018-01-30T00:02:12.230Z,1020.78
2018-01-30T00:02:47.623Z,1020.77
2018-01-30T00:03:23.347Z,1020.78
2018-01-30T00:03:58.836Z,1020.70
2018-01-30T00:04:33.940Z,1020.74
2018-01-30T00:05:09.662Z,1020.81
2018-01-30T00:05:45.159Z,1020.78
2018-01-30T00:06:20.465Z,1020.85
2018-01-30T00:06:55.684Z,1020.86
2018-01-30T00:07:31.294Z,1020.88
2018-01-30T00:08:06.511Z,1020.88
2018-01-30T00:08:41.800Z,1020.90
2018-01-30T00:09:17.309Z,1020.87
2018-01-30T00:09:52.401Z,1020.91
2018-01-30T00:10:27.698Z,1020.98
2018-01-30T00:11:02.914Z,1020.94
2018-01-30T00:11:38.310Z,1020.97
2018-01-30T00:12:13.940Z,1020.97
2018-01-30T00:12:49.427Z,1021.02
2018-01-30T00:13:24.923Z,1020.91
2018-01-30T00:14:00.036Z,1020.95
2018-01-30T00:14:35.231Z,1020.95
2018-01-30T00:15:10.652Z,1020.97
2018-01-30T00:15:45.841Z,1020.99
2018-01-30T00:16:21.038Z,1020.92
2018-01-30T00:16:56.430Z,1021.00
2018-01-30T00:17:31.879Z,1020.99
2018-01-30T00:18:07.105Z,1021.02
2018-01-30T00:18:42.294Z,1021.08
2018-01-30T00:19:17.685Z,1021.07
2018-01-30T00:19:52.878Z,1021.07
2018-01-30T00:20:28.069Z,1021.07
2018-01-30T00:21:03.564Z,1021.12
2018-01-30T00:21:38.758Z,1021.07
2018-01-30T00:22:14.489Z,1021.07
2018-01-30T00:22:49.906Z,1021.05
2018-01-30T00:23:25.401Z,1021.06
2018-01-30T00:24:00.696Z,1021.04
2018-01-30T00:24:36.390Z,1021.07
2018-01-30T00:25:11.605Z,1020.97
2018-01-30T00:25:47.104Z,1021.05
2018-01-30T00:26:22.303Z,1021.10
2018-01-30T00:26:57.606Z,1021.12
2018-01-30T00:27:32.902Z,1021.12
2018-01-30T00:28:08.445Z,1021.05
2018-01-30T00:28:43.839Z,1021.07
2018-01-30T00:29:19.334Z,1021.11
2018-01-30T00:29:54.531Z,1021.13
2018-01-30T00:30:29.835Z,1021.16
2018-01-30T00:31:05.186Z,1021.18
2018-01-30T00:31:40.678Z,1021.22
2018-01-30T00:32:15.897Z,1021.24
2018-01-30T00:32:51.487Z,1021.23
2018-01-30T00:33:26.913Z,1021.21
2018-01-30T00:34:01.800Z,1021.28
2018-01-30T00:34:37.096Z,1021.27
2018-01-30T00:35:12.518Z,1021.24
2018-01-30T00:35:47.905Z,1021.28
2018-01-30T00:36:23.105Z,1021.26
2018-01-30T00:36:58.493Z,1021.29
2018-01-30T00:37:33.896Z,1021.25
2018-01-30T00:38:09.221Z,1021.28
2018-01-30T00:38:44.450Z,1021.27
2018-01-30T00:39:19.939Z,1021.27
2018-01-30T00:39:55.229Z,1021.32
2018-01-30T00:40:30.833Z,1021.31
2018-01-30T00:41:06.149Z,1021.32
2018-01-30T00:41:41.258Z,1021.34
2018-01-30T00:42:16.685Z,1021.33
2018-01-30T00:42:52.062Z,1021.36
2018-01-30T00:43:27.253Z,1021.34
2018-01-30T00:44:02.586Z,1021.33
2018-01-30T00:44:37.882Z,1021.38
2018-01-30T00:45:13.198Z,1021.36
2018-01-30T00:45:48.804Z,1021.40
2018-01-30T00:46:24.108Z,1021.41
2018-01-30T00:46:59.306Z,1021.41
2018-01-30T00:47:34.604Z,1021.42
2018-01-30T00:48:09.804Z,1021.41
2018-01-30T00:48:45.097Z,1021.42
2018-01-30T00:49:20.425Z,1021.39
2018-01-30T00:49:55.513Z,1021.40
2018-01-30T00:50:30.714Z,1021.40
2018-01-30T00:51:06.129Z,1021.41
2018-01-30T00:51:41.732Z,1021.38
2018-01-30T00:52:16.954Z,1021.36
2018-01-30T00:52:52.454Z,1021.41
2018-01-30T00:53:27.752Z,1021.36
2018-01-30T00:54:03.039Z,1021.29
2018-01-30T00:54:38.366Z,1021.35
2018-01-30T00:55:13.866Z,1021.33
2018-01-30T00:55:48.966Z,1021.33
2018-01-30T00:56:24.364Z,1021.36
2018-01-30T00:56:59.665Z,1021.35
2018-01-30T00:57:35.465Z,1021.33
2018-01-30T00:58:10.580Z,1021.35
2018-01-30T00:58:45.776Z,1021.37
2018-01-30T00:59:21.087Z,1021.34
2018-01-30T00:59:56.519Z,1021.34
2018-01-30T01:00:32.219Z,1021.33
2018-01-30T01:01:07.536Z,1021.34
2018-01-30T01:01:42.626Z,1021.31
2018-01-30T01:02:17.729Z,1021.35
2018-01-30T01:02:52.729Z,1021.41
2018-01-30T01:03:28.356Z,1021.34
2018-01-30T01:04:03.576Z,1021.35
2018-01-30T01:04:39.374Z,1021.32
2018-01-30T01:05:14.716Z,1021.30
2018-01-30T01:05:50.136Z,1021.36
2018-01-30T01:06:25.464Z,1021.32
2018-01-30T01:07:01.155Z,1021.37
2018-01-30T01:07:36.554Z,1021.33
2018-01-30T01:08:12.169Z,1021.34
2018-01-30T01:08:47.259Z,1021.35
2018-01-30T01:09:23.069Z,1021.39
2018-01-30T01:09:58.493Z,1021.35
2018-01-30T01:10:33.887Z,1021.40
2018-01-30T01:11:09.211Z,1021.39
2018-01-30T01:11:44.609Z,1021.40
2018-01-30T01:12:20.028Z,1021.44
2018-01-30T01:12:55.516Z,1021.41
2018-01-30T01:13:30.610Z,1021.35
2018-01-30T01:14:05.927Z,1021.41
2018-01-30T01:14:41.415Z,1021.39
2018-01-30T01:15:16.635Z,1021.37
2018-01-30T01:15:51.927Z,1021.37
2018-01-30T01:16:27.229Z,1021.44
2018-01-30T01:17:02.423Z,1021.44
2018-01-30T01:17:37.623Z,1021.45
2018-01-30T01:18:13.433Z,1021.40
2018-01-30T01:18:49.035Z,1021.35
2018-01-30T01:19:24.334Z,1021.39
2018-01-30T01:19:59.722Z,1021.41
2018-01-30T01:20:35.256Z,1021.41
2018-01-30T01:21:10.479Z,1021.38
2018-01-30T01:21:45.775Z,1021.34
2018-01-30T01:22:21.379Z,1021.43
2018-01-30T01:22:56.876Z,1021.39
2018-01-30T01:23:32.168Z,1021.45
2018-01-30T01:24:07.583Z,1021.42
2018-01-30T01:24:42.585Z,1021.45
2018-01-30T01:25:18.177Z,1021.46
2018-01-30T01:25:53.405Z,1021.47
2018-01-30T01:26:28.492Z,1021.47
2018-01-30T01:27:03.923Z,1021.52
2018-01-30T01:27:39.413Z,1021.48
2018-01-30T01:28:14.625Z,1021.46
2018-01-30T01:28:49.717Z,1021.49
2018-01-30T01:29:25.010Z,1021.48
2018-01-30T01:30:00.415Z,1021.46
2018-01-30T01:30:36.203Z,1021.43
2018-01-30T01:31:11.654Z,1021.48
2018-01-30T01:31:46.950Z,1021.47
2018-01-30T01:32:22.257Z,1021.51
2018-01-30T01:32:57.553Z,1021.54
2018-01-30T01:33:32.860Z,1021.50
2018-01-30T01:34:08.070Z,1021.50
2018-01-30T01:34:43.359Z,1021.54
2018-01-30T01:35:19.315Z,1021.49
2018-01-30T01:35:54.799Z,1021.58
2018-01-30T01:36:30.334Z,1021.55
2018-01-30T01:37:05.656Z,1021.55
2018-01-30T01:37:40.652Z,1021.57
2018-01-30T01:38:15.643Z,1021.56
2018-01-30T01:38:50.937Z,1021.50
2018-01-30T01:39:26.532Z,1021.48
2018-01-30T01:40:01.931Z,1021.50
2018-01-30T01:40:37.222Z,1021.52
2018-01-30T01:41:13.087Z,1021.46
2018-01-30T01:41:48.392Z,1021.50
2018-01-30T01:42:23.892Z,1021.45
2018-01-30T01:42:59.083Z,1021.46
2018-01-30T01:43:34.788Z,1021.44
2018-01-30T01:44:10.295Z,1021.42
2018-01-30T01:44:45.382Z,1021.42
2018-01-30T01:45:20.481Z,1021.43
2018-01-30T01:45:55.764Z,1021.46
2018-01-30T01:46:31.191Z,1021.43
2018-01-30T01:47:06.410Z,1021.45
2018-01-30T01:47:41.800Z,1021.47
2018-01-30T01:48:16.915Z,1021.48
2018-01-30T01:48:52.007Z,1021.44
2018-01-30T01:49:27.307Z,1021.46
2018-01-30T01:50:02.396Z,1021.54
2018-01-30T01:50:37.594Z,1021.47
2018-01-30T01:51:12.503Z,1021.45
2018-01-30T01:51:48.008Z,1021.51
2018-01-30T01:52:23.398Z,1021.48
2018-01-30T01:52:58.690Z,1021.51
2018-01-30T01:53:33.894Z,1021.47
2018-01-30T01:54:09.204Z,1021.43
2018-01-30T01:54:44.499Z,1021.44
2018-01-30T01:55:19.711Z,1021.41
2018-01-30T01:55:55.006Z,1021.46
2018-01-30T01:56:30.423Z,1021.46
2018-01-30T01:57:05.653Z,1021.43
2018-01-30T01:57:41.057Z,1021.44
2018-01-30T01:58:16.356Z,1021.41
2018-01-30T01:58:51.648Z,1021.43
2018-01-30T01:59:27.039Z,1021.40
2018-01-30T02:00:02.444Z,1021.44
2018-01-30T02:00:38.539Z,1021.40
2018-01-30T02:01:14.182Z,1021.38
2018-01-30T02:01:49.683Z,1021.37
2018-01-30T02:02:25.101Z,1021.37
2018-01-30T02:03:00.398Z,1021.34
2018-01-30T02:03:35.591Z,1021.35
2018-01-30T02:04:11.312Z,1021.33
2018-01-30T02:04:46.803Z,1021.31
2018-01-30T02:05:22.203Z,1021.34
2018-01-30T02:05:57.702Z,1021.33
2018-01-30T02:06:33.127Z,1021.30
2018-01-30T02:07:08.350Z,1021.31
2018-01-30T02:07:43.643Z,1021.27
2018-01-30T02:08:18.769Z,1021.30
2018-01-30T02:08:54.164Z,1021.33
2018-01-30T02:09:29.560Z,1021.33
2018-01-30T02:10:05.106Z,1021.34
2018-01-30T02:10:40.501Z,1021.31
2018-01-30T02:11:15.405Z,1021.29
2018-01-30T02:11:50.530Z,1021.34
2018-01-30T02:12:25.922Z,1021.29
2018-01-30T02:13:01.227Z,1021.28
2018-01-30T02:13:36.426Z,1021.24
2018-01-30T02:14:12.346Z,1021.24
2018-01-30T02:14:47.954Z,1021.22
2018-01-30T02:15:23.254Z,1021.24
2018-01-30T02:15:58.339Z,1021.22
2018-01-30T02:16:33.756Z,1021.22
2018-01-30T02:17:08.976Z,1021.21
2018-01-30T02:17:44.156Z,1021.26
2018-01-30T02:18:19.671Z,1021.26
2018-01-30T02:18:54.973Z,1021.28
2018-01-30T02:19:30.661Z,1021.30
2018-01-30T02:20:06.355Z,1021.31
2018-01-30T02:20:41.957Z,1021.32
2018-01-30T02:21:17.246Z,1021.32
2018-01-30T02:21:52.366Z,1021.34
2018-01-30T02:24:29.587Z,1021.29
2018-01-30T02:25:04.773Z,1021.26
2018-01-30T02:25:40.461Z,1021.27
2018-01-30T02:26:15.723Z,1021.33
2018-01-30T02:26:51.139Z,1021.30
2018-01-30T02:27:26.245Z,1021.29
2018-01-30T02:28:01.726Z,1021.33
2018-01-30T02:28:37.126Z,1021.32
2018-01-30T02:29:12.513Z,1021.28
2018-01-30T02:29:48.012Z,1021.28
2018-01-30T02:30:23.487Z,1021.29
2018-01-30T02:30:58.565Z,1021.24
2018-01-30T02:31:33.847Z,1021.22
2018-01-30T02:32:09.121Z,1021.22
2018-01-30T02:32:44.803Z,1021.19
2018-01-30T02:33:20.278Z,1021.17
2018-01-30T02:33:55.574Z,1021.16
2018-01-30T02:34:30.744Z,1021.13
2018-01-30T02:35:05.841Z,1021.11
2018-01-30T02:35:41.411Z,1021.10
2018-01-30T02:36:16.885Z,1021.11
2018-01-30T02:36:51.961Z,1021.11
2018-01-30T02:37:26.941Z,1021.12
2018-01-30T02:38:02.123Z,1021.09
2018-01-30T02:38:37.400Z,1021.12
2018-01-30T02:39:12.602Z,1021.15
2018-01-30T02:39:47.882Z,1021.12
2018-01-30T02:40:23.261Z,1021.16
2018-01-30T02:40:58.576Z,1021.21
2018-01-30T02:41:33.866Z,1021.19
2018-01-30T02:42:09.149Z,1021.17
2018-01-30T02:42:44.536Z,1021.22
2018-01-30T02:43:20.016Z,1021.18
2018-01-30T02:43:55.501Z,1021.19
2018-01-30T02:44:30.810Z,1021.20
2018-01-30T02:45:06.092Z,1021.24
2018-01-30T02:45:41.384Z,1021.18
2018-01-30T02:46:16.791Z,1021.17
2018-01-30T02:46:51.990Z,1021.22
2018-01-30T02:47:27.285Z,1021.19
2018-01-30T02:48:02.468Z,1021.20
2018-01-30T02:48:37.558Z,1021.24
2018-01-30T02:49:13.078Z,1021.23
2018-01-30T02:49:48.353Z,1021.20
2018-01-30T02:50:23.537Z,1021.22
2018-01-30T02:50:58.911Z,1021.25
2018-01-30T02:51:34.318Z,1021.25
2018-01-30T02:52:09.642Z,1021.24
2018-01-30T02:52:44.927Z,1021.27
2018-01-30T02:53:20.217Z,1021.33
2018-01-30T02:53:55.296Z,1021.31
2018-01-30T02:54:30.882Z,1021.36
2018-01-30T02:55:06.092Z,1021.35
2018-01-30T02:55:41.477Z,1021.32
2018-01-30T02:56:16.887Z,1021.34
2018-01-30T02:56:52.198Z,1021.36
2018-01-30T02:57:27.591Z,1021.33
2018-01-30T02:58:02.876Z,1021.35
2018-01-30T02:58:38.372Z,1021.32
2018-01-30T02:59:13.657Z,1021.39
2018-01-30T02:59:49.045Z,1021.38
2018-01-30T03:00:24.634Z,1021.34
2018-01-30T03:00:59.918Z,1021.30
2018-01-30T03:01:34.909Z,1021.32
2018-01-30T03:02:10.240Z,1021.30
2018-01-30T03:02:45.422Z,1021.29
2018-01-30T03:03:20.708Z,1021.35
2018-01-30T03:03:56.194Z,1021.34
2018-01-30T03:04:31.484Z,1021.36
2018-01-30T03:05:06.768Z,1021.38
2018-01-30T03:05:42.059Z,1021.39
2018-01-30T03:06:17.146Z,1021.41
2018-01-30T03:06:52.427Z,1021.42
2018-01-30T03:07:27.745Z,1021.47
2018-01-30T03:08:03.228Z,1021.42
2018-01-30T03:08:38.617Z,1021.41
2018-01-30T03:09:13.826Z,1021.35
2018-01-30T03:09:48.912Z,1021.37
2018-01-30T03:10:24.198Z,1021.36
2018-01-30T03:10:59.582Z,1021.39
2018-01-30T03:11:34.969Z,1021.39
2018-01-30T03:12:10.293Z,1021.39
2018-01-30T03:12:45.781Z,1021.42
2018-01-30T03:13:20.969Z,1021.41
2018-01-30T03:13:56.556Z,1021.42
2018-01-30T03:14:32.037Z,1021.47
2018-01-30T03:15:07.351Z,1021.45
2018-01-30T03:15:42.736Z,1021.45
2018-01-30T03:16:18.241Z,1021.48
2018-01-30T03:16:53.321Z,1021.49
2018-01-30T03:17:28.431Z,1021.47
2018-01-30T03:18:03.838Z,1021.51
2018-01-30T03:18:39.417Z,1021.53
2018-01-30T03:19:14.722Z,1021.49
2018-01-30T03:19:50.106Z,1021.52
2018-01-30T03:20:25.397Z,1021.52
2018-01-30T03:21:00.773Z,1021.53
2018-01-30T03:21:36.366Z,1021.52
2018-01-30T03:22:11.495Z,1021.52
2018-01-30T03:22:46.882Z,1021.51
2018-01-30T03:23:22.489Z,1021.50
2018-01-30T03:23:58.213Z,1021.51
2018-01-30T03:24:33.602Z,1021.46
2018-01-30T03:25:09.116Z,1021.46
2018-01-30T03:25:44.496Z,1021.44
2018-01-30T03:26:19.783Z,1021.42
2018-01-30T03:26:55.076Z,1021.45
2018-01-30T03:27:30.683Z,1021.46
2018-01-30T03:28:06.134Z,1021.46
2018-01-30T03:28:41.414Z,1021.46
2018-01-30T03:29:16.720Z,1021.45
2018-01-30T03:29:52.104Z,1021.48
2018-01-30T03:30:27.695Z,1021.46
2018-01-30T03:31:03.081Z,1021.47
2018-01-30T03:31:38.272Z,1021.49
2018-01-30T03:32:13.454Z,1021.45
2018-01-30T03:32:49.168Z,1021.50
2018-01-30T03:33:24.654Z,1021.46
2018-01-30T03:34:00.036Z,1021.52
2018-01-30T03:34:35.128Z,1021.44
2018-01-30T03:35:10.533Z,1021.47
2018-01-30T03:35:45.517Z,1021.47
2018-01-30T03:36:20.621Z,1021.47
2018-01-30T03:36:56.103Z,1021.47
2018-01-30T03:37:31.519Z,1021.44
2018-01-30T03:38:06.825Z,1021.51
2018-01-30T03:38:42.006Z,1021.53
2018-01-30T03:39:17.591Z,1021.50
2018-01-30T03:39:52.776Z,1021.50
2018-01-30T03:40:27.965Z,1021.55
2018-01-30T03:41:03.549Z,1021.51
2018-01-30T03:41:38.626Z,1021.47
2018-01-30T03:42:13.931Z,1021.45
2018-01-30T03:42:49.444Z,1021.49
2018-01-30T03:43:24.425Z,1021.46
2018-01-30T03:43:59.722Z,1021.49
2018-01-30T03:44:35.201Z,1021.49
2018-01-30T03:45:30.690Z,1021.53
2018-01-30T03:46:06.182Z,1021.52
2018-01-30T03:46:41.559Z,1021.48
2018-01-30T03:47:16.653Z,1021.48
2018-01-30T03:47:52.052Z,1021.48
2018-01-30T03:48:27.330Z,1021.47
2018-01-30T03:49:02.702Z,1021.49
2018-01-30T03:49:37.881Z,1021.46
2018-01-30T03:50:13.574Z,1021.42
2018-01-30T03:50:48.646Z,1021.46
2018-01-30T03:51:24.119Z,1021.47
2018-01-30T03:51:59.505Z,1021.46
2018-01-30T03:52:34.755Z,1021.42
2018-01-30T03:53:09.904Z,1021.45
2018-01-30T03:53:45.179Z,1021.44
2018-01-30T03:54:20.585Z,1021.47
2018-01-30T03:54:55.756Z,1021.42
2018-01-30T03:55:31.038Z,1021.41
2018-01-30T03:56:06.335Z,1021.41
2018-01-30T03:56:41.713Z,1021.43
2018-01-30T03:57:17.002Z,1021.46
2018-01-30T03:57:52.101Z,1021.45
2018-01-30T03:58:27.274Z,1021.46
2018-01-30T03:59:02.555Z,1021.47
2018-01-30T03:59:37.828Z,1021.50
2018-01-30T04:00:13.230Z,1021.50
2018-01-30T04:00:48.643Z,1021.52
2018-01-30T04:01:24.020Z,1021.58
2018-01-30T04:01:59.501Z,1021.58
2018-01-30T04:02:34.588Z,1021.62
2018-01-30T04:03:09.821Z,1021.61
2018-01-30T04:03:45.110Z,1021.58
2018-01-30T04:04:20.303Z,1021.57
2018-01-30T04:04:55.694Z,1021.56
2018-01-30T04:05:30.984Z,1021.55
2018-01-30T04:06:06.515Z,1021.54
2018-01-30T04:06:41.805Z,1021.57
2018-01-30T04:07:17.095Z,1021.53
2018-01-30T04:07:52.403Z,1021.53
2018-01-30T04:08:27.692Z,1021.51
2018-01-30T04:09:03.084Z,1021.55
2018-01-30T04:09:38.481Z,1021.56
2018-01-30T04:10:13.695Z,1021.48
2018-01-30T04:10:49.081Z,1021.55
2018-01-30T04:11:24.468Z,1021.55
2018-01-30T04:11:59.956Z,1021.56
2018-01-30T04:12:35.249Z,1021.60
2018-01-30T04:13:10.469Z,1021.61
2018-01-30T04:13:45.751Z,1021.58
2018-01-30T04:14:20.948Z,1021.63
2018-01-30T04:14:56.436Z,1021.61
2018-01-30T04:15:31.832Z,1021.65
2018-01-30T04:16:07.447Z,1021.62
2018-01-30T04:16:42.733Z,1021.64
2018-01-30T04:17:18.169Z,1021.57
2018-01-30T04:17:53.371Z,1021.59
2018-01-30T04:18:28.768Z,1021.63
2018-01-30T04:19:04.150Z,1021.67
2018-01-30T04:19:39.641Z,1021.69
2018-01-30T04:20:15.138Z,1021.69
2018-01-30T04:20:51.028Z,1021.74
2018-01-30T04:21:26.121Z,1021.68
2018-01-30T04:22:01.613Z,1021.73
2018-01-30T04:22:36.900Z,1021.76
2018-01-30T04:23:12.237Z,1021.76
2018-01-30T04:23:47.633Z,1021.71
2018-01-30T04:24:22.941Z,1021.70
2018-01-30T04:24:58.236Z,1021.66
2018-01-30T04:25:33.522Z,1021.70
2018-01-30T04:26:08.703Z,1021.66
2018-01-30T04:26:43.989Z,1021.63
2018-01-30T04:27:19.268Z,1021.61
2018-01-30T04:27:54.456Z,1021.56
2018-01-30T04:28:29.769Z,1021.51
2018-01-30T04:29:04.889Z,1021.55
2018-01-30T04:29:40.380Z,1021.55
2018-01-30T04:30:15.799Z,1021.57
2018-01-30T04:30:51.190Z,1021.58
2018-01-30T04:31:26.477Z,1021.59
2018-01-30T04:32:01.560Z,1021.61
2018-01-30T04:32:36.761Z,1021.61
2018-01-30T04:33:12.080Z,1021.66
2018-01-30T04:33:48.264Z,1021.64
2018-01-30T04:34:23.653Z,1021.66
2018-01-30T04:34:59.138Z,1021.64
2018-01-30T04:35:34.420Z,1021.60
2018-01-30T04:36:09.829Z,1021.61
2018-01-30T04:36:45.013Z,1021.60
2018-01-30T04:37:20.619Z,1021.61
2018-01-30T04:37:56.209Z,1021.61
2018-01-30T04:38:31.519Z,1021.61
2018-01-30T04:39:06.932Z,1021.61
2018-01-30T04:39:42.220Z,1021.60
2018-01-30T04:40:17.607Z,1021.58
2018-01-30T04:40:52.746Z,1021.57
2018-01-30T04:41:28.008Z,1021.57
2018-01-30T04:42:03.294Z,1021.57
2018-01-30T04:42:38.484Z,1021.57
2018-01-30T04:43:13.527Z,1021.57
2018-01-30T04:43:48.905Z,1021.57
2018-01-30T04:44:24.319Z,1021.55
2018-01-30T04:44:59.608Z,1021.58
2018-01-30T04:45:34.891Z,1021.54
2018-01-30T04:46:10.309Z,1021.52
2018-01-30T04:46:45.408Z,1021.54
2018-01-30T04:47:20.486Z,1021.57
2018-01-30T04:47:55.775Z,1021.63
2018-01-30T04:48:30.915Z,1021.64
2018-01-30T04:49:06.222Z,1021.62
2018-01-30T04:49:41.720Z,1021.64
2018-01-30T04:50:17.232Z,1021.66
2018-01-30T04:50:52.415Z,1021.66
2018-01-30T04:51:27.807Z,1021.62
2018-01-30T04:52:03.293Z,1021.62
2018-01-30T04:52:38.585Z,1021.60
2018-01-30T04:53:13.828Z,1021.58
2018-01-30T04:53:49.108Z,1021.60
2018-01-30T04:54:24.602Z,1021.62
2018-01-30T04:55:00.187Z,1021.62
2018-01-30T04:55:35.483Z,1021.66
2018-01-30T04:56:10.907Z,1021.64
2018-01-30T04:56:46.092Z,1021.71
2018-01-30T04:57:21.592Z,1021.71
2018-01-30T04:57:57.170Z,1021.70
2018-01-30T04:58:32.579Z,1021.70
2018-01-30T04:59:07.992Z,1021.71
2018-01-30T04:59:43.391Z,1021.64
2018-01-30T05:00:18.673Z,1021.65
2018-01-30T05:00:53.762Z,1021.65
2018-01-30T05:01:29.247Z,1021.66
2018-01-30T05:02:04.654Z,1021.66
2018-01-30T05:02:39.846Z,1021.63
2018-01-30T05:03:15.034Z,1021.60
2018-01-30T05:03:50.443Z,1021.63
2018-01-30T05:04:26.036Z,1021.67
2018-01-30T05:05:01.718Z,1021.65
2018-01-30T05:05:36.802Z,1021.63
2018-01-30T05:06:11.905Z,1021.60
2018-01-30T05:06:47.075Z,1021.59
2018-01-30T05:07:22.454Z,1021.57
2018-01-30T05:07:57.628Z,1021.54
2018-01-30T05:08:33.028Z,1021.53
2018-01-30T05:09:08.441Z,1021.53
2018-01-30T05:09:43.803Z,1021.49
2018-01-30T05:10:19.214Z,1021.51
2018-01-30T05:10:54.599Z,1021.51
2018-01-30T05:11:30.092Z,1021.52
2018-01-30T05:12:05.301Z,1021.51
2018-01-30T05:12:40.670Z,1021.53
2018-01-30T05:13:15.864Z,1021.57
2018-01-30T05:13:51.469Z,1021.60
2018-01-30T05:14:26.647Z,1021.58
2018-01-30T05:15:01.836Z,1021.64
2018-01-30T05:15:37.116Z,1021.63
2018-01-30T05:16:12.291Z,1021.68
2018-01-30T05:16:47.563Z,1021.67
2018-01-30T05:17:22.844Z,1021.65
2018-01-30T05:17:58.026Z,1021.65
2018-01-30T05:18:33.432Z,1021.73
2018-01-30T05:19:08.834Z,1021.76
2018-01-30T05:19:44.107Z,1021.75
2018-01-30T05:20:19.419Z,1021.78
2018-01-30T05:20:54.858Z,1021.75
2018-01-30T05:21:30.239Z,1021.76
2018-01-30T05:22:05.517Z,1021.76
2018-01-30T05:22:40.794Z,1021.72
2018-01-30T05:23:16.073Z,1021.70
2018-01-30T05:23:51.478Z,1021.73
2018-01-30T05:24:26.661Z,1021.73
2018-01-30T05:25:02.238Z,1021.74
2018-01-30T05:25:37.720Z,1021.72
2018-01-30T05:26:13.220Z,1021.75
2018-01-30T05:26:48.608Z,1021.75
2018-01-30T05:27:24.017Z,1021.80
2018-01-30T05:27:59.388Z,1021.82
2018-01-30T05:28:34.783Z,1021.85
2018-01-30T05:29:10.080Z,1021.83
2018-01-30T05:29:45.568Z,1021.86
2018-01-30T05:30:20.851Z,1021.82
2018-01-30T05:30:56.029Z,1021.84
2018-01-30T05:31:31.407Z,1021.83
2018-01-30T05:32:06.709Z,1021.80
2018-01-30T05:32:42.186Z,1021.78
2018-01-30T05:33:17.580Z,1021.78
2018-01-30T05:33:52.886Z,1021.76
2018-01-30T05:34:28.066Z,1021.77
2018-01-30T05:35:03.242Z,1021.82
2018-01-30T05:35:38.434Z,1021.73
2018-01-30T05:36:13.906Z,1021.73
2018-01-30T05:36:49.286Z,1021.68
2018-01-30T05:37:24.559Z,1021.73
2018-01-30T05:37:59.838Z,1021.74
2018-01-30T05:38:35.014Z,1021.82
2018-01-30T05:39:10.461Z,1021.83
2018-01-30T05:39:45.924Z,1021.82
2018-01-30T05:40:21.222Z,1021.88
2018-01-30T05:40:56.469Z,1021.86
2018-01-30T05:41:32.145Z,1021.88
2018-01-30T05:42:07.544Z,1021.87
2018-01-30T05:42:42.949Z,1021.81
2018-01-30T05:43:18.500Z,1021.87
2018-01-30T05:43:53.907Z,1021.88
2018-01-30T05:44:29.310Z,1021.89
2018-01-30T05:45:04.392Z,1021.91
2018-01-30T05:45:39.770Z,1021.92
2018-01-30T05:46:14.996Z,1021.92
2018-01-30T05:46:50.464Z,1021.96
2018-01-30T05:47:25.842Z,1021.94
2018-01-30T05:48:01.226Z,1021.93
2018-01-30T05:48:36.599Z,1021.94
2018-01-30T05:49:11.922Z,1021.94
2018-01-30T05:49:47.293Z,1021.93
2018-01-30T05:50:22.880Z,1021.93
2018-01-30T05:50:58.255Z,1021.96
2018-01-30T05:51:33.644Z,1021.91
2018-01-30T05:52:09.132Z,1021.92
2018-01-30T05:52:44.404Z,1021.93
2018-01-30T05:53:19.581Z,1021.92
2018-01-30T05:53:55.078Z,1021.89
2018-01-30T05:54:30.402Z,1021.88
2018-01-30T05:55:05.513Z,1021.87
2018-01-30T05:55:40.709Z,1021.88
2018-01-30T05:56:15.918Z,1021.88
2018-01-30T05:56:51.518Z,1021.84
2018-01-30T05:57:27.013Z,1021.83
2018-01-30T05:58:02.298Z,1021.86
2018-01-30T05:58:37.589Z,1021.83
2018-01-30T05:59:13.010Z,1021.85
2018-01-30T05:59:48.497Z,1021.91
2018-01-30T06:00:23.978Z,1021.89
2018-01-30T06:00:59.163Z,1021.89
2018-01-30T06:01:34.642Z,1021.92
2018-01-30T06:02:09.945Z,1021.92
2018-01-30T06:02:45.324Z,1021.90
2018-01-30T06:03:20.721Z,1021.90
2018-01-30T06:03:56.106Z,1021.94
2018-01-30T06:04:31.611Z,1021.93
2018-01-30T06:05:07.105Z,1021.91
2018-01-30T06:05:42.282Z,1021.96
2018-01-30T06:06:17.657Z,1021.89
2018-01-30T06:06:53.034Z,1021.93
2018-01-30T06:07:28.114Z,1021.91
2018-01-30T06:08:03.289Z,1021.93
2018-01-30T06:08:38.671Z,1021.94
2018-01-30T06:09:13.998Z,1021.95
2018-01-30T06:09:49.233Z,1021.93
2018-01-30T06:10:24.627Z,1021.91
2018-01-30T06:10:59.902Z,1021.91
2018-01-30T06:11:35.288Z,1021.91
2018-01-30T06:12:11.028Z,1021.93
2018-01-30T06:12:46.429Z,1021.89
2018-01-30T06:13:21.908Z,1021.89
2018-01-30T06:13:57.297Z,1021.84
2018-01-30T06:14:32.515Z,1021.84
2018-01-30T06:15:08.038Z,1021.82
2018-01-30T06:15:43.427Z,1021.81
2018-01-30T06:16:18.659Z,1021.86
2018-01-30T06:16:54.054Z,1021.88
2018-01-30T06:17:29.236Z,1021.89
2018-01-30T06:18:04.921Z,1021.88
2018-01-30T06:18:40.302Z,1021.93
2018-01-30T06:19:15.805Z,1021.89
2018-01-30T06:19:51.484Z,1021.89
2018-01-30T06:20:26.866Z,1021.93
2018-01-30T06:21:02.143Z,1021.98
2018-01-30T06:21:37.525Z,1021.99
2018-01-30T06:22:12.931Z,1021.96
2018-01-30T06:22:48.200Z,1022.03
2018-01-30T06:23:23.576Z,1022.00
2018-01-30T06:23:58.753Z,1022.01
2018-01-30T06:24:34.180Z,1021.99
2018-01-30T06:25:09.472Z,1021.99
2018-01-30T06:25:44.660Z,1021.92
2018-01-30T06:26:20.145Z,1021.91
2018-01-30T06:26:55.818Z,1021.87
2018-01-30T06:27:31.205Z,1021.91
2018-01-30T06:28:06.842Z,1021.88
2018-01-30T06:28:42.123Z,1021.89
2018-01-30T06:29:17.306Z,1021.95
2018-01-30T06:29:52.925Z,1021.97
2018-01-30T06:30:28.102Z,1022.02
2018-01-30T06:31:03.384Z,1021.95
2018-01-30T06:31:38.665Z,1022.01
2018-01-30T06:32:13.861Z,1022.01
2018-01-30T06:32:49.438Z,1022.00
2018-01-30T06:33:24.929Z,1021.94
2018-01-30T06:34:00.504Z,1021.90
2018-01-30T06:34:35.910Z,1021.87
2018-01-30T06:35:11.609Z,1021.84
2018-01-30T06:35:46.786Z,1021.84
2018-01-30T06:36:22.060Z,1021.88
2018-01-30T06:36:57.540Z,1021.89
2018-01-30T06:37:32.722Z,1021.95
2018-01-30T06:38:07.947Z,1021.99
2018-01-30T06:38:43.508Z,1022.05
2018-01-30T06:39:18.809Z,1022.07
2018-01-30T06:39:54.323Z,1022.02
2018-01-30T06:40:29.605Z,1022.05
2018-01-30T06:41:05.007Z,1021.96
2018-01-30T06:41:40.489Z,1021.94
2018-01-30T06:42:15.572Z,1021.93
2018-01-30T06:42:50.957Z,1021.88
2018-01-30T06:43:26.636Z,1021.84
2018-01-30T06:44:02.063Z,1021.82
2018-01-30T06:44:37.741Z,1021.81
2018-01-30T06:45:13.128Z,1021.80
2018-01-30T06:45:48.413Z,1021.85
2018-01-30T06:46:23.600Z,1021.86
2018-01-30T06:46:59.683Z,1021.82
2018-01-30T06:47:34.869Z,1021.83
2018-01-30T06:48:10.046Z,1021.83
2018-01-30T06:48:45.325Z,1021.83
2018-01-30T06:49:20.700Z,1021.80
2018-01-30T06:49:56.304Z,1021.78
2018-01-30T06:50:31.378Z,1021.81
2018-01-30T06:51:06.781Z,1021.79
2018-01-30T06:51:41.953Z,1021.80
2018-01-30T06:52:17.256Z,1021.79
2018-01-30T06:52:52.436Z,1021.76
2018-01-30T06:53:27.710Z,1021.82
2018-01-30T06:54:02.992Z,1021.78
2018-01-30T06:54:38.272Z,1021.83
2018-01-30T06:55:13.585Z,1021.83
2018-01-30T06:55:48.871Z,1021.79
2018-01-30T06:56:23.948Z,1021.81
2018-01-30T06:56:59.025Z,1021.77
2018-01-30T06:57:34.409Z,1021.78
2018-01-30T06:58:10.017Z,1021.79
2018-01-30T06:58:45.188Z,1021.78
2018-01-30T06:59:20.694Z,1021.76
2018-01-30T06:59:56.191Z,1021.80
2018-01-30T07:00:31.169Z,1021.78
2018-01-30T07:01:06.469Z,1021.77
2018-01-30T07:01:41.742Z,1021.76
2018-01-30T07:02:17.022Z,1021.78
2018-01-30T07:02:52.198Z,1021.79
2018-01-30T07:03:27.877Z,1021.80
2018-01-30T07:04:03.153Z,1021.78
2018-01-30T07:04:38.838Z,1021.83
2018-01-30T07:05:14.658Z,1021.81
2018-01-30T07:05:50.033Z,1021.89
2018-01-30T07:06:25.438Z,1021.87
2018-01-30T07:07:01.107Z,1021.93
2018-01-30T07:07:36.504Z,1021.94
2018-01-30T07:08:11.778Z,1021.95
2018-01-30T07:08:47.261Z,1021.95
2018-01-30T07:09:22.538Z,1021.98
2018-01-30T07:09:57.840Z,1021.94